createdAt,value
2023-01-11T00:00:36.071Z,47.13
2023-01-11T00:03:03.155Z,47.00
2023-01-11T00:05:29.687Z,47.12
2023-01-11T00:07:56.217Z,47.08
2023-01-11T00:10:23.050Z,47.18
2023-01-11T00:12:49.497Z,47.04
2023-01-11T00:15:16.186Z,47.15
2023-01-11T00:17:42.667Z,47.13
2023-01-11T00:20:10.257Z,47.16
2023-01-11T00:22:37.485Z,47.14
2023-01-11T00:25:03.996Z,47.45
2023-01-11T00:27:30.245Z,46.96
2023-01-11T00:29:56.502Z,47.15
2023-01-11T00:32:22.862Z,47.02
2023-01-11T00:34:49.246Z,47.08
2023-01-11T00:37:16.616Z,47.11
2023-01-11T00:39:42.903Z,47.15
2023-01-11T00:42:29.429Z,47.12
2023-01-11T00:45:14.615Z,47.02
2023-01-11T00:48:00.921Z,46.95
2023-01-11T00:50:29.490Z,47.00
2023-01-11T00:52:56.084Z,46.94
2023-01-11T00:55:22.681Z,47.04
2023-01-11T00:57:49.068Z,47.08
2023-01-11T01:00:15.657Z,47.02
2023-01-11T01:02:42.054Z,47.07
2023-01-11T01:05:08.657Z,46.91
2023-01-11T01:07:34.882Z,47.01
2023-01-11T01:10:01.337Z,47.16
2023-01-11T01:12:46.183Z,47.11
2023-01-11T01:15:13.197Z,47.19
2023-01-11T01:17:39.669Z,47.29
2023-01-11T01:20:06.485Z,47.11
2023-01-11T01:22:33.423Z,47.28
2023-01-11T01:24:59.827Z,47.04
2023-01-11T01:27:26.452Z,47.33
2023-01-11T01:29:52.731Z,47.34
2023-01-11T01:32:19.162Z,47.07
2023-01-11T01:34:45.619Z,47.06
2023-01-11T01:37:11.957Z,47.18
2023-01-11T01:39:38.437Z,47.17
2023-01-11T01:42:06.040Z,47.17
2023-01-11T01:44:51.005Z,47.22
2023-01-11T01:47:18.524Z,47.18
2023-01-11T01:49:44.993Z,46.86
2023-01-11T01:52:11.890Z,47.08
2023-01-11T01:54:41.838Z,47.28
2023-01-11T01:57:29.095Z,47.09
2023-01-11T01:59:56.319Z,47.12
2023-01-11T02:02:24.708Z,47.11
2023-01-11T02:04:52.832Z,47.20
2023-01-11T02:07:20.955Z,47.05
2023-01-11T02:09:51.249Z,47.26
2023-01-11T02:12:18.313Z,47.15
2023-01-11T02:14:45.670Z,47.24
2023-01-11T02:17:12.308Z,47.29
2023-01-11T02:19:58.629Z,47.16
2023-01-11T02:22:30.682Z,47.16
2023-01-11T02:24:57.363Z,47.33
2023-01-11T02:27:42.551Z,47.29
2023-01-11T02:30:26.580Z,47.23
2023-01-11T02:33:22.224Z,47.17
2023-01-11T02:35:57.323Z,47.38
2023-01-11T02:38:33.763Z,47.25
2023-01-11T02:41:13.543Z,47.22
2023-01-11T02:44:05.250Z,47.20
2023-01-11T02:46:41.370Z,47.10
2023-01-11T02:49:21.344Z,47.23
2023-01-11T02:51:52.363Z,47.33
2023-01-11T02:54:21.412Z,46.97
2023-01-11T02:56:50.152Z,47.40
2023-01-11T02:59:19.305Z,47.34
2023-01-11T03:01:51.014Z,47.47
2023-01-11T03:04:33.512Z,47.02
2023-01-11T03:07:02.784Z,47.54
2023-01-11T03:09:40.482Z,47.59
2023-01-11T03:12:37.824Z,47.49
2023-01-11T03:15:18.332Z,47.54
2023-01-11T03:17:53.276Z,47.61
2023-01-11T03:20:28.513Z,47.48
2023-01-11T03:23:00.790Z,47.73
2023-01-11T03:25:40.605Z,47.48
2023-01-11T03:28:15.104Z,47.43
2023-01-11T03:30:49.677Z,47.78
2023-01-11T03:33:29.264Z,47.56
2023-01-11T03:35:59.929Z,47.74
2023-01-11T03:38:40.385Z,47.64
2023-01-11T03:41:19.011Z,47.62
2023-01-11T03:43:47.311Z,47.66
2023-01-11T03:46:17.749Z,47.77
2023-01-11T03:48:49.762Z,47.42
2023-01-11T03:51:19.179Z,47.57
2023-01-11T03:53:47.696Z,47.74
2023-01-11T03:56:15.873Z,47.82
2023-01-11T03:58:42.378Z,47.82
2023-01-11T04:01:09.852Z,47.81
2023-01-11T04:03:36.126Z,48.10
2023-01-11T04:06:02.983Z,47.69
2023-01-11T04:08:30.988Z,47.76
2023-01-11T04:10:57.650Z,47.85
2023-01-11T04:13:24.247Z,47.72
2023-01-11T04:15:52.128Z,47.84
2023-01-11T04:18:20.057Z,47.90
2023-01-11T04:20:46.403Z,48.13
2023-01-11T04:23:12.652Z,48.09
2023-01-11T04:25:39.101Z,48.27
2023-01-11T04:28:05.419Z,48.11
2023-01-11T04:30:31.870Z,48.08
2023-01-11T04:32:59.142Z,48.04
2023-01-11T04:35:25.767Z,48.16
2023-01-11T04:37:55.797Z,48.15
2023-01-11T04:40:22.701Z,48.37
2023-01-11T04:42:49.303Z,48.38
2023-01-11T04:45:15.755Z,48.34
2023-01-11T04:47:43.872Z,48.22
2023-01-11T04:50:12.009Z,48.64
2023-01-11T04:52:40.657Z,48.53
2023-01-11T04:55:07.291Z,48.63
2023-01-11T04:57:33.566Z,48.32
2023-01-11T05:00:00.049Z,48.32
2023-01-11T05:02:26.394Z,48.63
2023-01-11T05:04:52.660Z,48.64
2023-01-11T05:07:18.956Z,48.99
2023-01-11T05:09:45.278Z,49.03
2023-01-11T05:12:11.558Z,48.77
2023-01-11T05:14:37.991Z,48.98
2023-01-11T05:17:04.331Z,48.96
2023-01-11T05:19:30.614Z,48.91
2023-01-11T05:21:56.886Z,49.01
2023-01-11T05:24:23.351Z,49.24
2023-01-11T05:26:50.172Z,49.22
2023-01-11T05:29:16.680Z,48.82
2023-01-11T05:31:43.060Z,49.20
2023-01-11T05:34:11.641Z,49.18
2023-01-11T05:36:38.106Z,49.14
2023-01-11T05:39:04.749Z,48.76
2023-01-11T05:41:31.182Z,49.12
2023-01-11T05:44:16.425Z,49.22
2023-01-11T05:46:43.454Z,49.10
2023-01-11T05:49:11.027Z,49.10
2023-01-11T05:51:38.179Z,49.31
2023-01-11T05:54:05.735Z,49.33
2023-01-11T05:56:32.485Z,49.19
2023-01-11T05:58:58.940Z,49.26
2023-01-11T06:01:25.897Z,49.19
2023-01-11T06:03:52.273Z,49.34
2023-01-11T06:06:19.173Z,49.21
2023-01-11T06:08:45.650Z,49.30
2023-01-11T06:11:12.323Z,49.57
2023-01-11T06:13:38.753Z,49.34
2023-01-11T06:16:06.259Z,49.29
2023-01-11T06:18:34.493Z,49.31
2023-01-11T06:21:01.231Z,49.36
2023-01-11T06:23:28.436Z,49.34
2023-01-11T06:25:55.183Z,49.41
2023-01-11T06:28:21.570Z,49.36
2023-01-11T06:30:51.156Z,49.50
2023-01-11T06:33:17.445Z,49.40
2023-01-11T06:35:43.928Z,49.18
2023-01-11T06:38:11.738Z,49.39
2023-01-11T06:40:38.968Z,49.66
2023-01-11T06:43:05.860Z,49.51
2023-01-11T06:45:32.161Z,49.50
2023-01-11T06:47:58.459Z,49.39
2023-01-11T06:50:25.258Z,49.52
2023-01-11T06:52:59.311Z,49.75
2023-01-11T06:55:27.097Z,49.52
2023-01-11T06:57:53.731Z,49.30
2023-01-11T07:00:20.532Z,49.54
2023-01-11T07:02:47.409Z,49.38
2023-01-11T07:05:14.331Z,49.73
2023-01-11T07:07:41.581Z,49.55
2023-01-11T07:10:09.532Z,49.75
2023-01-11T07:12:36.091Z,49.81
2023-01-11T07:15:02.854Z,49.46
2023-01-11T07:17:29.095Z,49.98
2023-01-11T07:19:55.345Z,49.84
2023-01-11T07:22:22.508Z,49.70
2023-01-11T07:24:49.044Z,49.75
2023-01-11T07:27:15.374Z,49.46
2023-01-11T07:29:41.831Z,49.78
2023-01-11T07:32:10.994Z,49.84
2023-01-11T07:34:37.824Z,49.75
2023-01-11T07:37:04.349Z,49.46
2023-01-11T07:39:42.830Z,49.43
2023-01-11T07:42:29.499Z,49.76
2023-01-11T07:44:55.995Z,49.82
2023-01-11T07:47:22.315Z,49.42
2023-01-11T07:49:48.905Z,49.56
2023-01-11T07:52:15.325Z,49.91
2023-01-11T07:54:41.630Z,49.33
2023-01-11T07:57:08.072Z,49.69
2023-01-11T07:59:34.402Z,50.08
2023-01-11T08:02:00.716Z,50.13
2023-01-11T08:04:26.982Z,49.95
2023-01-11T08:06:53.409Z,49.60
2023-01-11T08:09:19.869Z,49.60
2023-01-11T08:12:04.973Z,49.60
2023-01-11T08:14:40.223Z,50.08
2023-01-11T08:17:14.520Z,49.97
2023-01-11T08:19:41.227Z,49.69
2023-01-11T08:22:08.308Z,50.02
2023-01-11T08:24:37.386Z,49.69
2023-01-11T08:27:04.383Z,49.74
2023-01-11T08:29:31.030Z,50.48
2023-01-11T08:31:57.400Z,50.28
2023-01-11T08:34:23.838Z,50.47
2023-01-11T08:36:50.118Z,49.98
2023-01-11T08:39:16.571Z,49.95
2023-01-11T08:41:42.857Z,50.10
2023-01-11T08:44:09.258Z,50.30
2023-01-11T08:46:38.087Z,50.03
2023-01-11T08:49:04.990Z,49.73
2023-01-11T08:51:31.294Z,49.69
2023-01-11T08:53:57.536Z,50.12
2023-01-11T08:56:25.034Z,49.77
2023-01-11T08:58:52.313Z,49.84
2023-01-11T09:01:19.097Z,50.34
2023-01-11T09:03:45.604Z,49.72
2023-01-11T09:06:11.998Z,49.89
2023-01-11T09:08:38.634Z,50.17
2023-01-11T09:11:25.055Z,50.32
2023-01-11T09:13:51.274Z,49.96
2023-01-11T09:16:17.560Z,50.10
2023-01-11T09:18:43.855Z,50.28
2023-01-11T09:21:10.801Z,50.06
2023-01-11T09:23:38.174Z,49.89
2023-01-11T09:26:05.451Z,50.01
2023-01-11T09:28:32.195Z,49.93
2023-01-11T09:30:58.516Z,50.22
2023-01-11T09:33:24.749Z,49.93
2023-01-11T09:35:51.699Z,49.93
2023-01-11T09:38:18.200Z,50.20
2023-01-11T09:41:00.852Z,50.19
2023-01-11T09:43:30.140Z,49.79
2023-01-11T09:46:00.676Z,50.22
2023-01-11T09:48:36.504Z,49.69
2023-01-11T09:51:05.231Z,49.88
2023-01-11T09:53:38.300Z,49.93
2023-01-11T09:56:07.771Z,49.86
2023-01-11T09:58:41.808Z,49.84
2023-01-11T10:01:30.931Z,49.27
2023-01-11T10:04:25.841Z,49.44
2023-01-11T10:06:52.202Z,49.28
2023-01-11T10:18:29.330Z,49.22
2023-01-11T10:18:49.424Z,49.29
2023-01-11T10:21:15.996Z,49.50
2023-01-11T10:23:55.985Z,49.06
2023-01-11T10:26:32.442Z,49.61
2023-01-11T10:29:17.364Z,49.12
2023-01-11T10:32:01.865Z,49.08
2023-01-11T10:34:43.075Z,49.19
2023-01-11T10:37:30.447Z,49.29
2023-01-11T10:40:06.874Z,49.39
2023-01-11T10:42:37.245Z,49.40
2023-01-11T10:45:12.936Z,49.25
2023-01-11T10:47:41.483Z,49.09
2023-01-11T10:50:30.372Z,49.08
2023-01-11T10:53:07.582Z,49.19
2023-01-11T10:55:41.652Z,49.48
2023-01-11T10:58:25.168Z,49.09
2023-01-11T11:01:18.637Z,49.29
2023-01-11T11:03:45.193Z,49.59
2023-01-11T11:06:26.161Z,49.50
2023-01-11T11:09:01.279Z,49.23
2023-01-11T11:11:38.413Z,49.15
2023-01-11T11:14:29.761Z,49.14
2023-01-11T11:17:05.225Z,49.33
2023-01-11T11:19:32.725Z,49.17
2023-01-11T11:21:59.734Z,49.55
2023-01-11T11:24:33.464Z,49.56
2023-01-11T11:27:03.496Z,49.45
2023-01-11T11:29:30.785Z,49.54
2023-01-11T11:31:58.922Z,49.28
2023-01-11T11:34:27.447Z,49.26
2023-01-11T11:36:54.405Z,49.30
2023-01-11T11:39:31.002Z,49.29
2023-01-11T11:42:05.052Z,49.02
2023-01-11T11:44:31.760Z,49.36
2023-01-11T11:46:59.156Z,48.79
2023-01-11T11:49:25.790Z,48.97
2023-01-11T11:51:52.661Z,48.97
2023-01-11T11:54:21.291Z,48.73
2023-01-11T11:56:47.877Z,48.46
2023-01-11T11:59:16.297Z,48.33
2023-01-11T12:01:46.815Z,48.75
2023-01-11T12:04:18.118Z,48.43
2023-01-11T12:06:46.190Z,48.71
2023-01-11T12:09:33.122Z,48.27
2023-01-11T12:12:00.123Z,48.16
2023-01-11T12:14:30.793Z,48.59
2023-01-11T12:17:00.226Z,48.56
2023-01-11T12:19:36.724Z,48.23
2023-01-11T12:22:19.952Z,48.73
2023-01-11T12:24:47.432Z,48.83
2023-01-11T12:27:16.809Z,48.80
2023-01-11T12:29:46.713Z,48.81
2023-01-11T12:32:31.899Z,48.91
2023-01-11T12:34:58.776Z,48.50
2023-01-11T12:37:45.508Z,48.88
2023-01-11T12:40:30.540Z,48.56
2023-01-11T12:42:56.787Z,48.23
2023-01-11T12:45:29.081Z,48.39
2023-01-11T12:48:19.035Z,48.18
2023-01-11T12:50:48.395Z,48.29
2023-01-11T12:53:33.106Z,47.82
2023-01-11T12:56:18.170Z,47.95
2023-01-11T12:59:06.067Z,47.78
2023-01-11T13:01:58.518Z,47.70
2023-01-11T13:04:24.948Z,47.98
2023-01-11T13:06:54.290Z,47.71
2023-01-11T13:09:20.631Z,48.11
2023-01-11T13:11:56.349Z,48.18
2023-01-11T13:14:41.910Z,48.20
2023-01-11T13:17:16.678Z,48.15
2023-01-11T13:20:01.613Z,47.78
2023-01-11T13:22:35.072Z,47.59
2023-01-11T13:25:02.696Z,48.08
2023-01-11T13:27:31.660Z,47.97
2023-01-11T13:30:01.767Z,47.52
2023-01-11T13:32:32.755Z,47.33
2023-01-11T13:35:03.625Z,47.73
2023-01-11T13:37:36.392Z,47.61
2023-01-11T13:40:24.881Z,47.28
2023-01-11T13:42:54.306Z,47.08
2023-01-11T13:45:28.393Z,46.99
2023-01-11T13:47:56.926Z,47.73
2023-01-11T13:50:39.791Z,47.54
2023-01-11T13:53:09.777Z,47.80
2023-01-11T13:55:55.053Z,47.91
2023-01-11T13:58:36.863Z,47.66
2023-01-11T14:01:15.539Z,47.19
2023-01-11T14:03:45.077Z,46.93
2023-01-11T14:06:26.392Z,47.55
2023-01-11T14:09:00.465Z,46.93
2023-01-11T14:11:32.595Z,47.44
2023-01-11T14:14:15.536Z,47.09
2023-01-11T14:16:48.240Z,47.28
2023-01-11T14:19:21.838Z,47.15
2023-01-11T14:21:54.011Z,46.80
2023-01-11T14:24:21.708Z,46.52
2023-01-11T14:26:51.079Z,46.84
2023-01-11T14:29:36.121Z,47.12
2023-01-11T14:32:17.642Z,46.62
2023-01-11T14:34:52.814Z,46.83
2023-01-11T14:37:42.339Z,46.56
2023-01-11T14:40:21.560Z,46.46
2023-01-11T14:43:06.332Z,46.54
2023-01-11T14:45:32.604Z,45.95
2023-01-11T14:48:04.816Z,46.34
2023-01-11T14:50:50.000Z,46.51
2023-01-11T14:53:19.280Z,46.34
2023-01-11T14:55:46.730Z,46.25
2023-01-11T14:58:19.675Z,46.71
2023-01-11T15:00:46.073Z,46.09
2023-01-11T15:03:12.305Z,46.43
2023-01-11T15:05:45.972Z,46.63
2023-01-11T15:08:15.066Z,46.35
2023-01-11T15:10:49.162Z,46.64
2023-01-11T15:13:21.829Z,46.85
2023-01-11T15:16:07.943Z,46.44
2023-01-11T15:18:42.049Z,46.36
2023-01-11T15:21:15.247Z,46.52
2023-01-11T15:23:48.592Z,46.60
2023-01-11T15:26:18.697Z,46.40
2023-01-11T15:28:56.494Z,46.25
2023-01-11T15:31:34.602Z,46.59
2023-01-11T15:34:21.179Z,46.40
2023-01-11T15:36:52.406Z,46.23
2023-01-11T15:39:23.112Z,46.22
2023-01-11T15:42:11.064Z,46.39
2023-01-11T15:44:56.707Z,46.29
2023-01-11T15:47:29.101Z,46.26
2023-01-11T15:49:58.526Z,46.26
2023-01-11T15:52:31.035Z,46.47
2023-01-11T15:55:17.562Z,46.19
2023-01-11T15:57:49.952Z,46.01
2023-01-11T16:00:35.212Z,46.10
2023-01-11T16:03:11.705Z,45.91
2023-01-11T16:05:41.447Z,45.88
2023-01-11T16:08:08.088Z,45.47
2023-01-11T16:10:46.506Z,45.89
2023-01-11T16:13:29.996Z,46.13
2023-01-11T16:15:59.355Z,45.56
2023-01-11T16:18:27.864Z,45.60
2023-01-11T16:21:01.006Z,45.25
2023-01-11T16:23:27.663Z,45.54
2023-01-11T16:25:55.874Z,45.42
2023-01-11T16:28:22.155Z,45.81
2023-01-11T16:30:54.789Z,45.87
2023-01-11T16:33:24.435Z,45.89
2023-01-11T16:36:02.619Z,46.14
2023-01-11T16:38:30.928Z,46.21
2023-01-11T16:40:58.336Z,46.23
2023-01-11T16:43:29.120Z,45.94
2023-01-11T16:45:55.841Z,46.32
2023-01-11T16:48:26.352Z,46.13
2023-01-11T16:51:17.228Z,46.07
2023-01-11T16:53:45.860Z,45.94
2023-01-11T16:56:18.221Z,46.15
2023-01-11T16:59:02.100Z,46.03
2023-01-11T17:01:28.491Z,45.99
2023-01-11T17:03:55.144Z,46.05
2023-01-11T17:06:22.646Z,45.92
2023-01-11T17:08:50.830Z,46.10
2023-01-11T17:11:26.103Z,46.29
2023-01-11T17:14:03.182Z,46.19
2023-01-11T17:16:36.983Z,46.33
2023-01-11T17:19:17.257Z,46.36
2023-01-11T17:22:03.665Z,46.28
2023-01-11T17:24:31.549Z,46.34
2023-01-11T17:26:59.265Z,46.17
2023-01-11T17:29:32.699Z,45.99
2023-01-11T17:32:00.860Z,46.13
2023-01-11T17:34:31.596Z,46.27
2023-01-11T17:36:58.454Z,46.54
2023-01-11T17:39:35.433Z,46.20
2023-01-11T17:42:22.235Z,46.44
2023-01-11T17:45:08.498Z,46.11
2023-01-11T17:47:37.483Z,46.39
2023-01-11T17:50:04.326Z,46.49
2023-01-11T17:52:43.878Z,46.40
2023-01-11T17:55:18.220Z,46.58
2023-01-11T17:57:44.951Z,46.54
2023-01-11T18:00:18.705Z,46.29
2023-01-11T18:02:45.902Z,46.49
2023-01-11T18:05:34.938Z,46.48
2023-01-11T18:08:01.314Z,46.54
2023-01-11T18:10:28.964Z,46.35
2023-01-11T18:12:56.619Z,46.58
2023-01-11T18:15:30.905Z,46.55
2023-01-11T18:17:57.577Z,46.60
2023-01-11T18:20:32.461Z,46.75
2023-01-11T18:23:04.707Z,46.51
2023-01-11T18:25:33.824Z,46.09
2023-01-11T18:28:12.504Z,46.37
2023-01-11T18:30:45.765Z,46.29
2023-01-11T18:33:19.832Z,46.55
2023-01-11T18:35:47.823Z,46.48
2023-01-11T18:38:18.637Z,46.74
2023-01-11T18:40:45.523Z,46.75
2023-01-11T18:43:12.356Z,46.80
2023-01-11T18:45:39.227Z,46.90
2023-01-11T18:48:09.780Z,46.86
2023-01-11T18:50:37.140Z,46.90
2023-01-11T18:53:03.591Z,46.58
2023-01-11T18:55:31.324Z,46.43
2023-01-11T18:57:58.520Z,45.98
2023-01-11T19:00:24.913Z,46.37
2023-01-11T19:05:22.598Z,46.44
2023-01-11T19:07:50.198Z,46.24
2023-01-11T19:10:20.492Z,46.36
2023-01-11T19:12:46.989Z,45.94
2023-01-11T19:15:14.010Z,46.21
2023-01-11T19:17:40.535Z,46.21
2023-01-11T19:20:09.253Z,46.20
2023-01-11T19:22:36.840Z,46.14
2023-01-11T19:25:03.358Z,45.95
2023-01-11T19:27:30.009Z,45.89
2023-01-11T19:29:58.251Z,45.73
2023-01-11T19:32:25.498Z,45.92
2023-01-11T19:34:52.326Z,45.86
2023-01-11T19:37:20.955Z,45.87
2023-01-11T19:39:47.483Z,45.87
2023-01-11T19:42:13.707Z,45.79
2023-01-11T19:44:41.149Z,45.90
2023-01-11T19:47:11.983Z,46.10
2023-01-11T19:49:40.483Z,45.77
2023-01-11T19:52:13.209Z,45.36
2023-01-11T19:54:41.754Z,45.45
2023-01-11T19:57:16.142Z,45.50
2023-01-11T19:59:42.476Z,45.96
2023-01-11T20:02:10.568Z,45.76
2023-01-11T20:04:37.306Z,45.66
2023-01-11T20:07:03.680Z,45.82
2023-01-11T20:09:29.988Z,45.90
2023-01-11T20:11:58.084Z,45.90
2023-01-11T20:14:25.485Z,46.07
2023-01-11T20:16:51.933Z,45.92
2023-01-11T20:19:18.506Z,45.79
2023-01-11T20:21:44.902Z,45.78
2023-01-11T20:24:14.786Z,45.85
2023-01-11T20:26:41.368Z,45.73
2023-01-11T20:29:07.855Z,45.68
2023-01-11T20:31:35.826Z,45.47
2023-01-11T20:34:13.577Z,45.43
2023-01-11T20:36:40.165Z,45.50
2023-01-11T20:39:07.350Z,45.42
2023-01-11T20:41:49.892Z,45.48
2023-01-11T20:44:18.153Z,45.35
2023-01-11T20:46:47.941Z,45.36
2023-01-11T20:49:14.831Z,45.47
2023-01-11T20:51:41.214Z,45.34
2023-01-11T20:54:07.628Z,45.29
2023-01-11T20:56:34.628Z,45.60
2023-01-11T20:59:01.382Z,45.43
2023-01-11T21:01:28.101Z,45.47
2023-01-11T21:03:55.150Z,45.75
2023-01-11T21:06:21.367Z,45.05
2023-01-11T21:08:48.090Z,45.54
2023-01-11T21:11:15.292Z,45.25
2023-01-11T21:13:41.922Z,45.15
2023-01-11T21:16:11.617Z,45.42
2023-01-11T21:18:38.513Z,45.64
2023-01-11T21:21:05.045Z,44.97
2023-01-11T21:23:31.624Z,45.10
2023-01-11T21:25:58.119Z,45.11
2023-01-11T21:28:24.568Z,45.13
2023-01-11T21:30:51.034Z,44.99
2023-01-11T21:33:17.661Z,45.19
2023-01-11T21:35:44.612Z,45.27
2023-01-11T21:38:10.897Z,45.35
2023-01-11T21:40:37.128Z,44.48
2023-01-11T21:43:03.385Z,45.10
2023-01-11T21:45:29.959Z,45.07
2023-01-11T21:47:56.424Z,45.10
2023-01-11T21:50:22.881Z,44.98
2023-01-11T21:52:49.354Z,45.14
2023-01-11T21:55:15.704Z,45.19
2023-01-11T21:57:42.011Z,45.08
2023-01-11T22:00:08.724Z,45.28
2023-01-11T22:02:35.173Z,45.21
2023-01-11T22:05:01.507Z,45.40
2023-01-11T22:07:32.403Z,45.46
2023-01-11T22:10:05.783Z,45.49
2023-01-11T22:12:32.909Z,45.49
2023-01-11T22:14:59.191Z,45.70
2023-01-11T22:17:25.879Z,45.57
2023-01-11T22:19:53.384Z,45.74
2023-01-11T22:22:20.826Z,45.67
2023-01-11T22:24:47.132Z,45.54
2023-01-11T22:27:13.448Z,45.68
2023-01-11T22:29:43.245Z,45.74
2023-01-11T22:32:09.709Z,45.76
2023-01-11T22:34:38.984Z,46.15
2023-01-11T22:37:05.807Z,45.97
2023-01-11T22:39:33.543Z,46.36
2023-01-11T22:41:59.972Z,45.97
2023-01-11T22:44:26.454Z,46.35
2023-01-11T22:46:52.782Z,46.07
2023-01-11T22:49:19.765Z,46.62
2023-01-11T22:51:48.348Z,46.76
2023-01-11T22:54:16.020Z,46.14
2023-01-11T22:56:44.858Z,46.60
2023-01-11T22:59:11.185Z,46.40
2023-01-11T23:01:39.033Z,46.61
2023-01-11T23:04:06.002Z,46.71
2023-01-11T23:06:35.584Z,46.63
2023-01-11T23:09:02.092Z,46.76
2023-01-11T23:11:48.700Z,47.01
2023-01-11T23:14:16.614Z,46.93
2023-01-11T23:16:43.827Z,47.26
2023-01-11T23:19:11.231Z,46.73
2023-01-11T23:21:40.179Z,46.88
2023-01-11T23:24:06.828Z,46.94
2023-01-11T23:26:35.720Z,47.30
2023-01-11T23:29:01.966Z,47.18
2023-01-11T23:31:29.562Z,46.96
2023-01-11T23:33:56.916Z,46.95
2023-01-11T23:36:24.227Z,46.74
2023-01-11T23:38:50.712Z,47.43
2023-01-11T23:41:36.398Z,46.71
2023-01-11T23:44:04.816Z,46.93
2023-01-11T23:46:49.636Z,46.81
2023-01-11T23:49:16.096Z,47.19
2023-01-11T23:51:42.891Z,47.05
2023-01-11T23:54:09.787Z,47.17
2023-01-11T23:56:36.921Z,47.30
2023-01-11T23:59:04.003Z,47.27
